sensor_id;sensor_type;location;lat;lon;timestamp;pressure;altitude;pressure_sealevel;temperature
14023;BMP180;7086;48.116;11.580;2022-10-31T00:02:02;95791.00;;;17.10
14023;BMP180;7086;48.116;11.580;2022-10-31T00:04:30;95787.00;;;17.10
14023;BMP180;7086;48.116;11.580;2022-10-31T00:06:58;95784.00;;;17.10
14023;BMP180;7086;48.116;11.580;2022-10-31T00:09:26;95791.00;;;17.10
14023;BMP180;7086;48.116;11.580;2022-10-31T00:11:53;95788.00;;;17.10
14023;BMP180;7086;48.116;11.580;2022-10-31T00:14:23;95806.00;;;17.10
14023;BMP180;7086;48.116;11.580;2022-10-31T00:16:52;95789.00;;;17.10
14023;BMP180;7086;48.116;11.580;2022-10-31T00:19:20;95789.00;;;17.00
14023;BMP180;7086;48.116;11.580;2022-10-31T00:22:07;95790.00;;;17.00
14023;BMP180;7086;48.116;11.580;2022-10-31T00:24:37;95787.00;;;16.90
14023;BMP180;7086;48.116;11.580;2022-10-31T00:27:08;95812.00;;;16.80
14023;BMP180;7086;48.116;11.580;2022-10-31T00:29:41;95784.00;;;16.80
14023;BMP180;7086;48.116;11.580;2022-10-31T00:32:12;95728.00;;;16.40
14023;BMP180;7086;48.116;11.580;2022-10-31T00:34:40;95777.00;;;16.70
14023;BMP180;7086;48.116;11.580;2022-10-31T00:37:12;95792.00;;;16.30
14023;BMP180;7086;48.116;11.580;2022-10-31T00:39:40;95783.00;;;16.60
14023;BMP180;7086;48.116;11.580;2022-10-31T00:42:07;95781.00;;;16.50
14023;BMP180;7086;48.116;11.580;2022-10-31T00:44:35;95779.00;;;16.50
14023;BMP180;7086;48.116;11.580;2022-10-31T00:47:03;95776.00;;;16.50
14023;BMP180;7086;48.116;11.580;2022-10-31T00:49:36;95777.00;;;16.50
14023;BMP180;7086;48.116;11.580;2022-10-31T00:52:07;95773.00;;;16.40
14023;BMP180;7086;48.116;11.580;2022-10-31T00:54:35;95773.00;;;16.40
14023;BMP180;7086;48.116;11.580;2022-10-31T00:57:05;95679.00;;;16.50
14023;BMP180;7086;48.116;11.580;2022-10-31T00:59:36;95774.00;;;16.50
14023;BMP180;7086;48.116;11.580;2022-10-31T01:02:03;95784.00;;;16.50
14023;BMP180;7086;48.116;11.580;2022-10-31T01:04:42;95782.00;;;16.50
14023;BMP180;7086;48.116;11.580;2022-10-31T01:07:11;95772.00;;;16.50
14023;BMP180;7086;48.116;11.580;2022-10-31T01:09:40;95779.00;;;16.50
14023;BMP180;7086;48.116;11.580;2022-10-31T01:12:10;95714.00;;;16.40
14023;BMP180;7086;48.116;11.580;2022-10-31T01:14:38;95769.00;;;16.50
14023;BMP180;7086;48.116;11.580;2022-10-31T01:17:06;95769.00;;;16.40
14023;BMP180;7086;48.116;11.580;2022-10-31T01:19:40;95796.00;;;16.30
14023;BMP180;7086;48.116;11.580;2022-10-31T01:22:08;95773.00;;;16.40
14023;BMP180;7086;48.116;11.580;2022-10-31T01:24:36;95773.00;;;16.40
14023;BMP180;7086;48.116;11.580;2022-10-31T01:27:04;95779.00;;;16.40
14023;BMP180;7086;48.116;11.580;2022-10-31T01:29:40;95782.00;;;16.40
14023;BMP180;7086;48.116;11.580;2022-10-31T01:32:11;95777.00;;;16.40
14023;BMP180;7086;48.116;11.580;2022-10-31T01:34:41;95803.00;;;16.20
14023;BMP180;7086;48.116;11.580;2022-10-31T01:37:09;95780.00;;;16.40
14023;BMP180;7086;48.116;11.580;2022-10-31T01:39:37;95773.00;;;16.40
14023;BMP180;7086;48.116;11.580;2022-10-31T01:42:09;95775.00;;;16.40
14023;BMP180;7086;48.116;11.580;2022-10-31T01:44:59;95763.00;;;16.40
14023;BMP180;7086;48.116;11.580;2022-10-31T01:47:38;95706.00;;;16.40
14023;BMP180;7086;48.116;11.580;2022-10-31T01:50:28;95756.00;;;16.00
14023;BMP180;7086;48.116;11.580;2022-10-31T01:53:05;95802.00;;;16.40
14023;BMP180;7086;48.116;11.580;2022-10-31T01:55:38;95670.00;;;16.20
14023;BMP180;7086;48.116;11.580;2022-10-31T01:58:11;95783.00;;;16.50
14023;BMP180;7086;48.116;11.580;2022-10-31T02:00:45;95785.00;;;16.50
14023;BMP180;7086;48.116;11.580;2022-10-31T02:03:35;95791.00;;;16.40
14023;BMP180;7086;48.116;11.580;2022-10-31T02:06:53;95688.00;;;16.50
14023;BMP180;7086;48.116;11.580;2022-10-31T02:10:06;95673.00;;;16.40
14023;BMP180;7086;48.116;11.580;2022-10-31T02:15:40;95769.00;;;16.50
14023;BMP180;7086;48.116;11.580;2022-10-31T02:18:10;95695.00;;;16.50
14023;BMP180;7086;48.116;11.580;2022-10-31T02:20:50;95684.00;;;16.50
14023;BMP180;7086;48.116;11.580;2022-10-31T02:23:53;95769.00;;;16.50
14023;BMP180;7086;48.116;11.580;2022-10-31T02:26:43;95639.00;;;16.40
14023;BMP180;7086;48.116;11.580;2022-10-31T02:30:11;95788.00;;;16.50
14023;BMP180;7086;48.116;11.580;2022-10-31T02:33:22;95775.00;;;16.40
14023;BMP180;7086;48.116;11.580;2022-10-31T02:36:11;95724.00;;;16.50
14023;BMP180;7086;48.116;11.580;2022-10-31T02:41:48;95646.00;;;16.40
14023;BMP180;7086;48.116;11.580;2022-10-31T02:44:48;95704.00;;;16.40
14023;BMP180;7086;48.116;11.580;2022-10-31T02:50:32;95680.00;;;16.40
14023;BMP180;7086;48.116;11.580;2022-10-31T02:53:07;95727.00;;;16.20
14023;BMP180;7086;48.116;11.580;2022-10-31T02:55:59;95770.00;;;16.20
14023;BMP180;7086;48.116;11.580;2022-10-31T02:58:36;95787.00;;;16.30
14023;BMP180;7086;48.116;11.580;2022-10-31T03:01:33;95787.00;;;16.20
14023;BMP180;7086;48.116;11.580;2022-10-31T03:04:51;95758.00;;;16.20
14023;BMP180;7086;48.116;11.580;2022-10-31T03:07:33;95771.00;;;16.40
14023;BMP180;7086;48.116;11.580;2022-10-31T03:10:14;95774.00;;;16.40
14023;BMP180;7086;48.116;11.580;2022-10-31T03:12:53;95748.00;;;16.40
14023;BMP180;7086;48.116;11.580;2022-10-31T03:15:28;95768.00;;;16.30
14023;BMP180;7086;48.116;11.580;2022-10-31T03:18:04;95702.00;;;16.30
14023;BMP180;7086;48.116;11.580;2022-10-31T03:20:39;95789.00;;;16.20
14023;BMP180;7086;48.116;11.580;2022-10-31T03:23:19;95720.00;;;16.30
14023;BMP180;7086;48.116;11.580;2022-10-31T03:25:53;95777.00;;;16.00
14023;BMP180;7086;48.116;11.580;2022-10-31T03:28:36;95660.00;;;16.20
14023;BMP180;7086;48.116;11.580;2022-10-31T03:31:29;95674.00;;;16.10
14023;BMP180;7086;48.116;11.580;2022-10-31T03:34:15;95811.00;;;16.00
14023;BMP180;7086;48.116;11.580;2022-10-31T03:36:54;95771.00;;;16.10
14023;BMP180;7086;48.116;11.580;2022-10-31T03:39:55;95783.00;;;16.00
14023;BMP180;7086;48.116;11.580;2022-10-31T03:42:56;95729.00;;;16.10
14023;BMP180;7086;48.116;11.580;2022-10-31T03:45:53;95776.00;;;15.80
14023;BMP180;7086;48.116;11.580;2022-10-31T03:48:47;95769.00;;;15.70
14023;BMP180;7086;48.116;11.580;2022-10-31T03:51:51;95770.00;;;15.70
14023;BMP180;7086;48.116;11.580;2022-10-31T03:54:32;95657.00;;;16.10
14023;BMP180;7086;48.116;11.580;2022-10-31T03:57:22;95672.00;;;16.00
14023;BMP180;7086;48.116;11.580;2022-10-31T04:00:17;95721.00;;;16.10
14023;BMP180;7086;48.116;11.580;2022-10-31T04:02:57;95765.00;;;15.70
14023;BMP180;7086;48.116;11.580;2022-10-31T04:05:28;95772.00;;;16.10
14023;BMP180;7086;48.116;11.580;2022-10-31T04:07:59;95770.00;;;15.70
14023;BMP180;7086;48.116;11.580;2022-10-31T04:10:32;95680.00;;;16.00
14023;BMP180;7086;48.116;11.580;2022-10-31T04:13:08;95806.00;;;15.90
14023;BMP180;7086;48.116;11.580;2022-10-31T04:15:49;95648.00;;;16.10
14023;BMP180;7086;48.116;11.580;2022-10-31T04:18:17;95772.00;;;16.10
14023;BMP180;7086;48.116;11.580;2022-10-31T04:20:47;95707.00;;;16.10
14023;BMP180;7086;48.116;11.580;2022-10-31T04:23:19;95780.00;;;15.80
14023;BMP180;7086;48.116;11.580;2022-10-31T04:25:48;95771.00;;;16.10
14023;BMP180;7086;48.116;11.580;2022-10-31T04:28:17;95664.00;;;15.60
14023;BMP180;7086;48.116;11.580;2022-10-31T04:30:45;95775.00;;;16.10
14023;BMP180;7086;48.116;11.580;2022-10-31T04:33:13;95782.00;;;15.90
14023;BMP180;7086;48.116;11.580;2022-10-31T04:35:41;95779.00;;;16.00
14023;BMP180;7086;48.116;11.580;2022-10-31T04:38:08;95785.00;;;16.00
14023;BMP180;7086;48.116;11.580;2022-10-31T04:40:39;95777.00;;;16.00
14023;BMP180;7086;48.116;11.580;2022-10-31T04:43:07;95781.00;;;16.00
14023;BMP180;7086;48.116;11.580;2022-10-31T04:45:39;95790.00;;;15.60
14023;BMP180;7086;48.116;11.580;2022-10-31T04:48:07;95777.00;;;15.90
14023;BMP180;7086;48.116;11.580;2022-10-31T04:50:35;95778.00;;;15.90
14023;BMP180;7086;48.116;11.580;2022-10-31T04:53:07;95663.00;;;15.80
14023;BMP180;7086;48.116;11.580;2022-10-31T04:55:47;95653.00;;;15.80
14023;BMP180;7086;48.116;11.580;2022-10-31T04:58:15;95746.00;;;15.90
14023;BMP180;7086;48.116;11.580;2022-10-31T05:01:12;95705.00;;;15.60
14023;BMP180;7086;48.116;11.580;2022-10-31T05:03:40;95773.00;;;15.90
14023;BMP180;7086;48.116;11.580;2022-10-31T05:06:11;95744.00;;;15.70
14023;BMP180;7086;48.116;11.580;2022-10-31T05:08:45;95773.00;;;15.40
14023;BMP180;7086;48.116;11.580;2022-10-31T05:11:13;95774.00;;;15.80
14023;BMP180;7086;48.116;11.580;2022-10-31T05:13:41;95775.00;;;15.80
14023;BMP180;7086;48.116;11.580;2022-10-31T05:16:13;95789.00;;;15.40
14023;BMP180;7086;48.116;11.580;2022-10-31T05:18:41;95766.00;;;15.80
14023;BMP180;7086;48.116;11.580;2022-10-31T05:21:09;95763.00;;;15.70
14023;BMP180;7086;48.116;11.580;2022-10-31T05:23:37;95762.00;;;15.70
14023;BMP180;7086;48.116;11.580;2022-10-31T05:26:05;95755.00;;;15.70
14023;BMP180;7086;48.116;11.580;2022-10-31T05:28:32;95755.00;;;15.70
14023;BMP180;7086;48.116;11.580;2022-10-31T05:31:00;95758.00;;;15.60
14023;BMP180;7086;48.116;11.580;2022-10-31T05:33:30;95775.00;;;15.40
14023;BMP180;7086;48.116;11.580;2022-10-31T05:35:58;95758.00;;;15.60
14023;BMP180;7086;48.116;11.580;2022-10-31T05:38:26;95754.00;;;15.50
14023;BMP180;7086;48.116;11.580;2022-10-31T05:40:54;95723.00;;;15.50
14023;BMP180;7086;48.116;11.580;2022-10-31T05:43:26;95747.00;;;15.50
14023;BMP180;7086;48.116;11.580;2022-10-31T05:45:53;95735.00;;;15.40
14023;BMP180;7086;48.116;11.580;2022-10-31T05:48:22;95753.00;;;15.40
14023;BMP180;7086;48.116;11.580;2022-10-31T05:50:51;95750.00;;;15.40
14023;BMP180;7086;48.116;11.580;2022-10-31T05:53:19;95749.00;;;15.40
14023;BMP180;7086;48.116;11.580;2022-10-31T05:55:47;95752.00;;;15.40
14023;BMP180;7086;48.116;11.580;2022-10-31T05:58:15;95748.00;;;15.40
14023;BMP180;7086;48.116;11.580;2022-10-31T06:00:43;95753.00;;;15.40
14023;BMP180;7086;48.116;11.580;2022-10-31T06:03:11;95752.00;;;15.40
14023;BMP180;7086;48.116;11.580;2022-10-31T06:05:38;95748.00;;;15.40
14023;BMP180;7086;48.116;11.580;2022-10-31T06:08:10;95756.00;;;15.40
14023;BMP180;7086;48.116;11.580;2022-10-31T06:10:40;95773.00;;;15.20
14023;BMP180;7086;48.116;11.580;2022-10-31T06:13:08;95753.00;;;15.30
14023;BMP180;7086;48.116;11.580;2022-10-31T06:15:37;95761.00;;;15.30
14023;BMP180;7086;48.116;11.580;2022-10-31T06:18:08;95747.00;;;15.00
14023;BMP180;7086;48.116;11.580;2022-10-31T06:20:36;95763.00;;;15.20
14023;BMP180;7086;48.116;11.580;2022-10-31T06:23:07;95774.00;;;15.20
14023;BMP180;7086;48.116;11.580;2022-10-31T06:25:34;95763.00;;;15.10
14023;BMP180;7086;48.116;11.580;2022-10-31T06:28:02;95769.00;;;15.10
14023;BMP180;7086;48.116;11.580;2022-10-31T06:30:30;95763.00;;;15.00
14023;BMP180;7086;48.116;11.580;2022-10-31T06:33:02;95728.00;;;15.00
14023;BMP180;7086;48.116;11.580;2022-10-31T06:35:31;95768.00;;;15.00
14023;BMP180;7086;48.116;11.580;2022-10-31T06:37:59;95762.00;;;15.00
14023;BMP180;7086;48.116;11.580;2022-10-31T06:40:28;95776.00;;;15.00
14023;BMP180;7086;48.116;11.580;2022-10-31T06:43:01;95719.00;;;15.00
14023;BMP180;7086;48.116;11.580;2022-10-31T06:45:31;95758.00;;;15.00
14023;BMP180;7086;48.116;11.580;2022-10-31T06:47:59;95761.00;;;15.00
14023;BMP180;7086;48.116;11.580;2022-10-31T06:50:27;95762.00;;;15.00
14023;BMP180;7086;48.116;11.580;2022-10-31T06:52:56;95765.00;;;15.10
14023;BMP180;7086;48.116;11.580;2022-10-31T06:55:27;95762.00;;;15.10
14023;BMP180;7086;48.116;11.580;2022-10-31T06:57:59;95775.00;;;15.20
14023;BMP180;7086;48.116;11.580;2022-10-31T07:00:29;95767.00;;;15.20
14023;BMP180;7086;48.116;11.580;2022-10-31T07:02:58;95666.00;;;15.30
14023;BMP180;7086;48.116;11.580;2022-10-31T07:05:27;95764.00;;;15.30
14023;BMP180;7086;48.116;11.580;2022-10-31T07:07:57;95767.00;;;15.40
14023;BMP180;7086;48.116;11.580;2022-10-31T07:10:29;95776.00;;;15.50
14023;BMP180;7086;48.116;11.580;2022-10-31T07:12:59;95775.00;;;15.60
14023;BMP180;7086;48.116;11.580;2022-10-31T07:15:32;95802.00;;;15.70
14023;BMP180;7086;48.116;11.580;2022-10-31T07:18:02;95775.00;;;15.80
14023;BMP180;7086;48.116;11.580;2022-10-31T07:20:32;95763.00;;;15.50
14023;BMP180;7086;48.116;11.580;2022-10-31T07:23:02;95760.00;;;16.00
14023;BMP180;7086;48.116;11.580;2022-10-31T07:25:32;95735.00;;;16.00
14023;BMP180;7086;48.116;11.580;2022-10-31T07:28:00;95775.00;;;16.20
14023;BMP180;7086;48.116;11.580;2022-10-31T07:30:29;95771.00;;;16.30
14023;BMP180;7086;48.116;11.580;2022-10-31T07:32:57;95770.00;;;16.50
14023;BMP180;7086;48.116;11.580;2022-10-31T07:35:26;95768.00;;;16.50
14023;BMP180;7086;48.116;11.580;2022-10-31T07:37:54;95768.00;;;16.70
14023;BMP180;7086;48.116;11.580;2022-10-31T07:40:23;95758.00;;;16.80
14023;BMP180;7086;48.116;11.580;2022-10-31T07:42:58;95766.00;;;17.00
14023;BMP180;7086;48.116;11.580;2022-10-31T07:45:26;95765.00;;;17.10
14023;BMP180;7086;48.116;11.580;2022-10-31T07:47:54;95771.00;;;17.30
14023;BMP180;7086;48.116;11.580;2022-10-31T07:50:23;95767.00;;;17.50
14023;BMP180;7086;48.116;11.580;2022-10-31T07:53:00;95726.00;;;17.80
14023;BMP180;7086;48.116;11.580;2022-10-31T07:55:29;95763.00;;;18.50
14023;BMP180;7086;48.116;11.580;2022-10-31T07:58:03;95770.00;;;18.80
14023;BMP180;7086;48.116;11.580;2022-10-31T08:00:34;95737.00;;;20.00
14023;BMP180;7086;48.116;11.580;2022-10-31T08:03:06;95769.00;;;20.80
14023;BMP180;7086;48.116;11.580;2022-10-31T08:05:35;95777.00;;;21.60
14023;BMP180;7086;48.116;11.580;2022-10-31T08:08:05;95703.00;;;22.30
14023;BMP180;7086;48.116;11.580;2022-10-31T08:10:34;95693.00;;;23.00
14023;BMP180;7086;48.116;11.580;2022-10-31T08:13:08;95752.00;;;23.60
14023;BMP180;7086;48.116;11.580;2022-10-31T08:15:37;95750.00;;;24.20
14023;BMP180;7086;48.116;11.580;2022-10-31T08:18:20;95754.00;;;24.80
14023;BMP180;7086;48.116;11.580;2022-10-31T08:21:03;95755.00;;;25.40
14023;BMP180;7086;48.116;11.580;2022-10-31T08:23:36;95747.00;;;26.10
14023;BMP180;7086;48.116;11.580;2022-10-31T08:26:04;95763.00;;;26.60
14023;BMP180;7086;48.116;11.580;2022-10-31T08:28:38;95737.00;;;27.20
14023;BMP180;7086;48.116;11.580;2022-10-31T08:31:09;95738.00;;;27.70
14023;BMP180;7086;48.116;11.580;2022-10-31T08:33:38;95734.00;;;28.20
14023;BMP180;7086;48.116;11.580;2022-10-31T08:36:06;95699.00;;;28.60
14023;BMP180;7086;48.116;11.580;2022-10-31T08:38:37;95735.00;;;29.00
14023;BMP180;7086;48.116;11.580;2022-10-31T08:41:06;95731.00;;;29.40
14023;BMP180;7086;48.116;11.580;2022-10-31T08:43:49;95737.00;;;29.80
14023;BMP180;7086;48.116;11.580;2022-10-31T08:46:17;95732.00;;;30.10
14023;BMP180;7086;48.116;11.580;2022-10-31T08:48:48;95723.00;;;30.20
14023;BMP180;7086;48.116;11.580;2022-10-31T08:51:18;95739.00;;;30.30
14023;BMP180;7086;48.116;11.580;2022-10-31T08:53:49;95677.00;;;30.30
14023;BMP180;7086;48.116;11.580;2022-10-31T08:56:18;95729.00;;;30.30
14023;BMP180;7086;48.116;11.580;2022-10-31T08:58:47;95730.00;;;30.30
14023;BMP180;7086;48.116;11.580;2022-10-31T09:01:15;95717.00;;;30.30
14023;BMP180;7086;48.116;11.580;2022-10-31T09:03:43;95719.00;;;30.40
14023;BMP180;7086;48.116;11.580;2022-10-31T09:06:11;95710.00;;;30.60
14023;BMP180;7086;48.116;11.580;2022-10-31T09:08:39;95706.00;;;30.70
14023;BMP180;7086;48.116;11.580;2022-10-31T09:11:06;95707.00;;;30.80
14023;BMP180;7086;48.116;11.580;2022-10-31T09:13:34;95706.00;;;30.90
14023;BMP180;7086;48.116;11.580;2022-10-31T09:16:12;95716.00;;;31.00
14023;BMP180;7086;48.116;11.580;2022-10-31T09:18:44;95699.00;;;31.20
14023;BMP180;7086;48.116;11.580;2022-10-31T09:21:12;95687.00;;;31.50
14023;BMP180;7086;48.116;11.580;2022-10-31T09:23:40;95696.00;;;31.80
14023;BMP180;7086;48.116;11.580;2022-10-31T09:26:08;95694.00;;;32.00
14023;BMP180;7086;48.116;11.580;2022-10-31T09:28:38;95693.00;;;32.20
14023;BMP180;7086;48.116;11.580;2022-10-31T09:31:08;95644.00;;;32.30
14023;BMP180;7086;48.116;11.580;2022-10-31T09:33:37;95700.00;;;32.30
14023;BMP180;7086;48.116;11.580;2022-10-31T09:36:09;95701.00;;;32.10
14023;BMP180;7086;48.116;11.580;2022-10-31T09:38:40;95658.00;;;32.20
14023;BMP180;7086;48.116;11.580;2022-10-31T09:41:23;95605.00;;;32.00
14023;BMP180;7086;48.116;11.580;2022-10-31T09:44:09;95686.00;;;31.80
14023;BMP180;7086;48.116;11.580;2022-10-31T09:47:03;95672.00;;;31.50
14023;BMP180;7086;48.116;11.580;2022-10-31T09:49:57;95698.00;;;31.10
14023;BMP180;7086;48.116;11.580;2022-10-31T09:52:35;95645.00;;;30.70
14023;BMP180;7086;48.116;11.580;2022-10-31T09:55:16;95689.00;;;30.30
14023;BMP180;7086;48.116;11.580;2022-10-31T09:57:46;95680.00;;;29.90
14023;BMP180;7086;48.116;11.580;2022-10-31T10:00:21;95663.00;;;29.20
14023;BMP180;7086;48.116;11.580;2022-10-31T10:03:11;95572.00;;;29.00
14023;BMP180;7086;48.116;11.580;2022-10-31T10:08:32;95635.00;;;28.40
14023;BMP180;7086;48.116;11.580;2022-10-31T10:11:43;95677.00;;;28.20
14023;BMP180;7086;48.116;11.580;2022-10-31T10:14:34;95617.00;;;27.90
14023;BMP180;7086;48.116;11.580;2022-10-31T10:17:53;95672.00;;;27.90
14023;BMP180;7086;48.116;11.580;2022-10-31T10:20:59;95664.00;;;27.90
14023;BMP180;7086;48.116;11.580;2022-10-31T10:23:56;95684.00;;;28.10
14023;BMP180;7086;48.116;11.580;2022-10-31T10:26:53;95665.00;;;28.30
14023;BMP180;7086;48.116;11.580;2022-10-31T10:51:32;95634.00;;;28.80
14023;BMP180;7086;48.116;11.580;2022-10-31T10:54:41;95654.00;;;28.40
14023;BMP180;7086;48.116;11.580;2022-10-31T10:57:32;95586.00;;;28.10
14023;BMP180;7086;48.116;11.580;2022-10-31T11:00:22;95594.00;;;28.00
14023;BMP180;7086;48.116;11.580;2022-10-31T11:03:04;95636.00;;;27.70
14023;BMP180;7086;48.116;11.580;2022-10-31T11:05:51;95566.00;;;27.50
14023;BMP180;7086;48.116;11.580;2022-10-31T11:09:09;95598.00;;;27.30
14023;BMP180;7086;48.116;11.580;2022-10-31T11:11:50;95632.00;;;27.10
14023;BMP180;7086;48.116;11.580;2022-10-31T11:14:36;95626.00;;;27.00
14023;BMP180;7086;48.116;11.580;2022-10-31T11:17:29;95637.00;;;26.90
14023;BMP180;7086;48.116;11.580;2022-10-31T11:20:28;95587.00;;;26.80
14023;BMP180;7086;48.116;11.580;2022-10-31T11:28:21;95611.00;;;26.70
14023;BMP180;7086;48.116;11.580;2022-10-31T11:31:19;95631.00;;;26.80
14023;BMP180;7086;48.116;11.580;2022-10-31T11:34:04;95620.00;;;26.90
14023;BMP180;7086;48.116;11.580;2022-10-31T11:37:03;95606.00;;;27.00
14023;BMP180;7086;48.116;11.580;2022-10-31T11:39:50;95602.00;;;27.00
14023;BMP180;7086;48.116;11.580;2022-10-31T11:42:43;95570.00;;;27.00
14023;BMP180;7086;48.116;11.580;2022-10-31T11:45:44;95590.00;;;27.00
14023;BMP180;7086;48.116;11.580;2022-10-31T11:51:02;95526.00;;;26.90
14023;BMP180;7086;48.116;11.580;2022-10-31T11:56:25;95584.00;;;26.90
14023;BMP180;7086;48.116;11.580;2022-10-31T12:02:19;95543.00;;;26.60
14023;BMP180;7086;48.116;11.580;2022-10-31T12:04:58;95577.00;;;26.50
14023;BMP180;7086;48.116;11.580;2022-10-31T12:07:42;95511.00;;;26.30
14023;BMP180;7086;48.116;11.580;2022-10-31T12:10:34;95570.00;;;26.20
14023;BMP180;7086;48.116;11.580;2022-10-31T12:13:28;95484.00;;;26.10
14023;BMP180;7086;48.116;11.580;2022-10-31T12:16:46;95495.00;;;25.60
14023;BMP180;7086;48.116;11.580;2022-10-31T12:19:40;95496.00;;;25.50
14023;BMP180;7086;48.116;11.580;2022-10-31T12:22:47;95582.00;;;25.70
14023;BMP180;7086;48.116;11.580;2022-10-31T12:25:43;95570.00;;;25.60
14023;BMP180;7086;48.116;11.580;2022-10-31T12:29:07;95500.00;;;25.60
14023;BMP180;7086;48.116;11.580;2022-10-31T12:32:13;95459.00;;;25.50
14023;BMP180;7086;48.116;11.580;2022-10-31T12:35:29;95444.00;;;25.40
14023;BMP180;7086;48.116;11.580;2022-10-31T12:41:15;95465.00;;;25.40
14023;BMP180;7086;48.116;11.580;2022-10-31T12:43:59;95547.00;;;25.20
14023;BMP180;7086;48.116;11.580;2022-10-31T12:46:58;95547.00;;;25.40
14023;BMP180;7086;48.116;11.580;2022-10-31T12:49:46;95542.00;;;25.40
14023;BMP180;7086;48.116;11.580;2022-10-31T12:52:51;95532.00;;;25.40
14023;BMP180;7086;48.116;11.580;2022-10-31T12:55:48;95519.00;;;25.40
14023;BMP180;7086;48.116;11.580;2022-10-31T12:58:24;95512.00;;;25.40
14023;BMP180;7086;48.116;11.580;2022-10-31T13:01:06;95518.00;;;25.30
14023;BMP180;7086;48.116;11.580;2022-10-31T13:03:46;95462.00;;;25.30
14023;BMP180;7086;48.116;11.580;2022-10-31T13:06:24;95509.00;;;25.10
14023;BMP180;7086;48.116;11.580;2022-10-31T13:09:06;95503.00;;;25.40
14023;BMP180;7086;48.116;11.580;2022-10-31T13:11:41;95502.00;;;25.50
14023;BMP180;7086;48.116;11.580;2022-10-31T13:14:21;95491.00;;;25.50
14023;BMP180;7086;48.116;11.580;2022-10-31T13:16:54;95431.00;;;25.50
14023;BMP180;7086;48.116;11.580;2022-10-31T13:25:20;95459.00;;;25.40
14023;BMP180;7086;48.116;11.580;2022-10-31T13:28:12;95494.00;;;25.40
14023;BMP180;7086;48.116;11.580;2022-10-31T13:30:44;95459.00;;;25.30
14023;BMP180;7086;48.116;11.580;2022-10-31T13:33:31;95464.00;;;25.30
14023;BMP180;7086;48.116;11.580;2022-10-31T13:36:30;95434.00;;;25.30
14023;BMP180;7086;48.116;11.580;2022-10-31T13:39:23;95466.00;;;25.30
14023;BMP180;7086;48.116;11.580;2022-10-31T13:42:11;95503.00;;;25.30
14023;BMP180;7086;48.116;11.580;2022-10-31T13:44:55;95477.00;;;25.30
14023;BMP180;7086;48.116;11.580;2022-10-31T13:47:37;95477.00;;;25.20
14023;BMP180;7086;48.116;11.580;2022-10-31T13:50:38;95413.00;;;25.10
14023;BMP180;7086;48.116;11.580;2022-10-31T13:53:56;95477.00;;;25.10
14023;BMP180;7086;48.116;11.580;2022-10-31T14:06:09;95487.00;;;24.90
14023;BMP180;7086;48.116;11.580;2022-10-31T14:08:52;95479.00;;;24.90
14023;BMP180;7086;48.116;11.580;2022-10-31T14:11:26;95417.00;;;24.60
14023;BMP180;7086;48.116;11.580;2022-10-31T14:14:12;95445.00;;;24.80
14023;BMP180;7086;48.116;11.580;2022-10-31T14:16:45;95401.00;;;24.80
14023;BMP180;7086;48.116;11.580;2022-10-31T14:19:27;95445.00;;;24.70
14023;BMP180;7086;48.116;11.580;2022-10-31T14:25:44;95433.00;;;24.70
14023;BMP180;7086;48.116;11.580;2022-10-31T14:28:33;95437.00;;;24.70
14023;BMP180;7086;48.116;11.580;2022-10-31T14:31:27;95435.00;;;24.60
14023;BMP180;7086;48.116;11.580;2022-10-31T14:33:58;95430.00;;;24.60
14023;BMP180;7086;48.116;11.580;2022-10-31T14:36:39;95409.00;;;24.60
14023;BMP180;7086;48.116;11.580;2022-10-31T14:39:17;95353.00;;;24.60
14023;BMP180;7086;48.116;11.580;2022-10-31T14:42:21;95352.00;;;24.50
14023;BMP180;7086;48.116;11.580;2022-10-31T14:45:21;95413.00;;;24.50
14023;BMP180;7086;48.116;11.580;2022-10-31T14:48:08;95384.00;;;24.40
14023;BMP180;7086;48.116;11.580;2022-10-31T14:50:50;95333.00;;;24.40
14023;BMP180;7086;48.116;11.580;2022-10-31T14:53:26;95408.00;;;24.40
14023;BMP180;7086;48.116;11.580;2022-10-31T14:55:56;95403.00;;;24.40
14023;BMP180;7086;48.116;11.580;2022-10-31T14:59:00;95320.00;;;24.30
14023;BMP180;7086;48.116;11.580;2022-10-31T15:01:33;95438.00;;;24.30
14023;BMP180;7086;48.116;11.580;2022-10-31T15:04:09;95359.00;;;24.30
14023;BMP180;7086;48.116;11.580;2022-10-31T15:07:00;95387.00;;;24.30
14023;BMP180;7086;48.116;11.580;2022-10-31T15:09:43;95409.00;;;24.20
14023;BMP180;7086;48.116;11.580;2022-10-31T15:12:28;95364.00;;;24.20
14023;BMP180;7086;48.116;11.580;2022-10-31T15:15:19;95345.00;;;24.20
14023;BMP180;7086;48.116;11.580;2022-10-31T15:17:50;95397.00;;;24.10
14023;BMP180;7086;48.116;11.580;2022-10-31T15:20:21;95325.00;;;24.00
14023;BMP180;7086;48.116;11.580;2022-10-31T15:23:11;95386.00;;;24.00
14023;BMP180;7086;48.116;11.580;2022-10-31T15:25:39;95389.00;;;24.00
14023;BMP180;7086;48.116;11.580;2022-10-31T15:28:24;95350.00;;;23.90
14023;BMP180;7086;48.116;11.580;2022-10-31T15:31:16;95396.00;;;23.90
14023;BMP180;7086;48.116;11.580;2022-10-31T15:34:06;95308.00;;;23.80
14023;BMP180;7086;48.116;11.580;2022-10-31T15:36:49;95353.00;;;23.50
14023;BMP180;7086;48.116;11.580;2022-10-31T15:39:21;95347.00;;;23.70
14023;BMP180;7086;48.116;11.580;2022-10-31T15:42:17;95394.00;;;23.60
14023;BMP180;7086;48.116;11.580;2022-10-31T15:44:55;95350.00;;;23.60
14023;BMP180;7086;48.116;11.580;2022-10-31T15:47:55;95408.00;;;23.50
14023;BMP180;7086;48.116;11.580;2022-10-31T15:50:31;95421.00;;;23.40
14023;BMP180;7086;48.116;11.580;2022-10-31T15:53:02;95379.00;;;23.30
14023;BMP180;7086;48.116;11.580;2022-10-31T15:55:44;95390.00;;;23.10
14023;BMP180;7086;48.116;11.580;2022-10-31T15:58:16;95341.00;;;23.10
14023;BMP180;7086;48.116;11.580;2022-10-31T16:11:39;95385.00;;;22.70
14023;BMP180;7086;48.116;11.580;2022-10-31T16:14:17;95380.00;;;22.70
14023;BMP180;7086;48.116;11.580;2022-10-31T16:17:10;95388.00;;;22.60
14023;BMP180;7086;48.116;11.580;2022-10-31T16:19:56;95378.00;;;22.50
14023;BMP180;7086;48.116;11.580;2022-10-31T16:22:32;95370.00;;;22.40
14023;BMP180;7086;48.116;11.580;2022-10-31T16:25:08;95373.00;;;22.30
14023;BMP180;7086;48.116;11.580;2022-10-31T16:27:59;95358.00;;;22.20
14023;BMP180;7086;48.116;11.580;2022-10-31T16:30:37;95298.00;;;22.10
14023;BMP180;7086;48.116;11.580;2022-10-31T16:33:22;95386.00;;;22.10
14023;BMP180;7086;48.116;11.580;2022-10-31T16:35:56;95434.00;;;22.00